createdAt,value
2018-07-11T00:04:50.872Z,12
2018-07-11T00:08:51.137Z,12.1
2018-07-11T00:15:51.548Z,12
2018-07-11T00:21:51.895Z,11.9
2018-07-11T00:26:52.187Z,11.8
2018-07-11T00:32:52.619Z,11.6
2018-07-11T00:36:52.843Z,11.5
2018-07-11T00:39:53.023Z,11.4
2018-07-11T00:41:53.146Z,11.3
2018-07-11T00:44:53.345Z,11.1
2018-07-11T00:47:53.521Z,11
2018-07-11T00:59:54.260Z,11.1
2018-07-11T01:03:54.489Z,11
2018-07-11T01:11:55.004Z,10.9
2018-07-11T01:33:56.357Z,10.8
2018-07-11T01:51:57.483Z,10.9
2018-07-11T01:57:57.788Z,11
2018-07-11T02:03:58.156Z,11.1
2018-07-11T02:07:58.468Z,11.3
2018-07-11T02:16:58.996Z,11.4
2018-07-11T02:28:59.696Z,11.5
2018-07-11T02:38:00.854Z,11.6
2018-07-11T02:50:01.495Z,11.5
2018-07-11T03:06:01.979Z,11.4
2018-07-11T03:09:02.160Z,11.5
2018-07-11T03:10:02.279Z,11.4
2018-07-11T03:11:02.343Z,11.5
2018-07-11T03:14:02.472Z,11.4
2018-07-11T03:15:02.572Z,11.5
2018-07-11T03:23:03.027Z,11.6
2018-07-11T03:28:03.406Z,11.8
2018-07-11T03:32:03.583Z,11.9
2018-07-11T03:36:03.885Z,12
2018-07-11T03:39:04.002Z,12.1
2018-07-11T03:43:04.247Z,12.2
2018-07-11T03:47:04.568Z,12.4
2018-07-11T03:50:04.739Z,12.5
2018-07-11T03:51:04.789Z,12.4
2018-07-11T03:52:04.855Z,12.5
2018-07-11T03:54:04.988Z,12.6
2018-07-11T03:58:05.209Z,12.8
2018-07-11T04:01:05.360Z,12.9
2018-07-11T04:04:05.560Z,13
2018-07-11T04:08:05.795Z,13.1
2018-07-11T04:11:05.974Z,13.3
2018-07-11T04:16:06.347Z,13.4
2018-07-11T04:29:07.077Z,13.5
2018-07-11T04:33:07.367Z,13.6
2018-07-11T04:35:07.507Z,13.8
2018-07-11T04:38:07.664Z,13.9
2018-07-11T04:39:07.741Z,14
2018-07-11T04:42:07.921Z,14.1
2018-07-11T04:45:08.103Z,14.3
2018-07-11T04:58:09.372Z,14.4
2018-07-11T05:03:09.863Z,14.5
2018-07-11T05:05:10.116Z,14.6
2018-07-11T05:07:10.688Z,14.7
2018-07-11T05:15:11.160Z,14.6
2018-07-11T05:16:11.686Z,14.7
2018-07-11T05:17:11.684Z,14.6
2018-07-11T05:20:11.863Z,14.5
2018-07-11T05:25:12.151Z,14.6
2018-07-11T05:27:12.342Z,14.7
2018-07-11T05:30:13.008Z,14.9
2018-07-11T05:33:13.190Z,15
2018-07-11T05:44:13.909Z,15.1
2018-07-11T05:47:14.090Z,15.3
2018-07-11T05:49:14.213Z,15.4
2018-07-11T05:50:14.277Z,15.5
2018-07-11T05:51:14.366Z,15.6
2018-07-11T05:52:14.543Z,15.8
2018-07-11T05:54:14.506Z,15.9
2018-07-11T05:57:14.676Z,16
2018-07-11T05:59:14.809Z,15.9
2018-07-11T06:02:14.983Z,15.6
2018-07-11T06:04:15.102Z,15.5
2018-07-11T06:05:15.184Z,15.4
2018-07-11T06:11:15.785Z,15.5
2018-07-11T06:13:15.935Z,15.6
2018-07-11T06:15:16.027Z,15.8
2018-07-11T06:17:16.166Z,15.9
2018-07-11T06:18:16.213Z,16
2018-07-11T06:20:16.460Z,16.1
2018-07-11T06:22:16.546Z,16.3
2018-07-11T06:24:16.628Z,16.4
2018-07-11T06:28:16.863Z,16.5
2018-07-11T06:30:16.998Z,16.6
2018-07-11T06:31:17.103Z,16.8
2018-07-11T06:32:17.155Z,16.9
2018-07-11T06:33:17.191Z,17
2018-07-11T06:34:17.248Z,17.1
2018-07-11T06:35:17.529Z,17.4
2018-07-11T06:36:17.613Z,17.6
2018-07-11T06:37:17.648Z,17.8
2018-07-11T06:38:17.739Z,17.9
2018-07-11T06:39:17.795Z,18
2018-07-11T06:40:17.805Z,18.1
2018-07-11T06:42:17.924Z,18.4
2018-07-11T06:43:17.993Z,18.5
2018-07-11T06:45:18.108Z,18.6
2018-07-11T06:46:18.242Z,18.8
2018-07-11T06:47:18.232Z,18.9
2018-07-11T06:48:18.334Z,19
2018-07-11T06:49:18.380Z,19.1
2018-07-11T06:50:18.467Z,19.4
2018-07-11T06:51:18.515Z,19.5
2018-07-11T06:52:18.988Z,19.6
2018-07-11T06:54:19.139Z,19.8
2018-07-11T06:55:19.624Z,19.9
2018-07-11T06:56:19.686Z,20
2018-07-11T07:00:19.896Z,19.9
2018-07-11T07:03:20.095Z,20
2018-07-11T07:04:20.120Z,20.1
2018-07-11T07:05:20.244Z,20.3
2018-07-11T07:06:20.284Z,20.1
2018-07-11T07:08:20.370Z,20
2018-07-11T07:11:20.566Z,20.1
2018-07-11T07:12:20.616Z,20.4
2018-07-11T07:13:21.033Z,20.8
2018-07-11T07:14:21.071Z,21
2018-07-11T07:15:21.153Z,21.5
2018-07-11T07:16:21.222Z,22
2018-07-11T07:17:21.273Z,22.6
2018-07-11T07:18:21.335Z,23.3
2018-07-11T07:19:21.360Z,23.7
2018-07-11T07:20:21.424Z,24.1
2018-07-11T07:21:21.524Z,24.5
2018-07-11T07:22:21.639Z,25
2018-07-11T07:23:21.611Z,25.5
2018-07-11T07:24:21.687Z,25.9
2018-07-11T07:25:21.851Z,26.2
2018-07-11T07:27:21.876Z,26.4
2018-07-11T07:35:22.333Z,26.5
2018-07-11T07:36:22.428Z,26.6
2018-07-11T07:37:22.496Z,26.8
2018-07-11T07:38:22.551Z,27
2018-07-11T07:39:22.626Z,27.5
2018-07-11T07:40:22.693Z,27.9
2018-07-11T07:41:22.728Z,28
2018-07-11T07:42:22.817Z,27.8
2018-07-11T07:43:22.834Z,27.5
2018-07-11T07:44:22.927Z,27
2018-07-11T07:45:22.997Z,26.6
2018-07-11T07:46:23.060Z,26.1
2018-07-11T07:47:23.117Z,25.8
2018-07-11T07:48:23.179Z,25.5
2018-07-11T07:51:23.366Z,25.8
2018-07-11T07:52:23.442Z,27
2018-07-11T07:53:23.440Z,27.6
2018-07-11T07:54:23.495Z,28
2018-07-11T07:55:23.604Z,28.1
2018-07-11T07:56:23.671Z,27.6
2018-07-11T07:57:23.699Z,27.2
2018-07-11T07:58:23.745Z,27
2018-07-11T07:59:23.796Z,26.8
2018-07-11T08:01:23.921Z,26.9
2018-07-11T08:02:23.983Z,27.5
2018-07-11T08:03:24.047Z,28.3
2018-07-11T08:04:24.105Z,28.5
2018-07-11T08:05:24.168Z,28.6
2018-07-11T08:06:24.272Z,28.7
2018-07-11T08:08:24.368Z,30
2018-07-11T08:09:24.429Z,31
2018-07-11T08:10:24.524Z,30.6
2018-07-11T08:11:24.602Z,30.8
2018-07-11T08:13:24.695Z,30.4
2018-07-11T08:14:24.751Z,30
2018-07-11T08:15:24.787Z,29.9
2018-07-11T08:16:24.846Z,31.4
2018-07-11T08:17:24.910Z,31
2018-07-11T08:18:24.977Z,30.6
2018-07-11T08:19:25.029Z,31
2018-07-11T08:20:25.094Z,30.9
2018-07-11T08:22:25.252Z,30.6
2018-07-11T08:23:25.334Z,30.9
2018-07-11T08:24:25.342Z,30.8
2018-07-11T08:25:25.464Z,31.6
2018-07-11T08:26:25.512Z,32.5
2018-07-11T08:28:25.659Z,33.9
2018-07-11T08:29:25.686Z,35.6
2018-07-11T08:32:25.878Z,36.9
2018-07-11T08:33:27.494Z,36.6
2018-07-11T08:34:26.026Z,36
2018-07-11T08:35:26.054Z,36.7
2018-07-11T08:36:26.136Z,37.4
2018-07-11T08:37:26.183Z,36.6
2018-07-11T08:38:26.211Z,35.7
2018-07-11T08:40:26.408Z,36.5
2018-07-11T08:41:26.401Z,38
2018-07-11T08:42:26.482Z,36.7
2018-07-11T08:43:26.560Z,35.5
2018-07-11T08:44:26.614Z,34.5
2018-07-11T08:45:26.706Z,33.6
2018-07-11T08:46:26.694Z,32.7
2018-07-11T08:47:26.772Z,32.1
2018-07-11T08:48:26.823Z,31.5
2018-07-11T08:49:26.887Z,30.9
2018-07-11T08:50:26.941Z,30.3
2018-07-11T08:51:27.430Z,29.9
2018-07-11T08:52:27.065Z,29.4
2018-07-11T08:53:27.123Z,29.1
2018-07-11T08:54:27.235Z,28.9
2018-07-11T08:55:27.334Z,28.6
2018-07-11T08:56:27.375Z,28.4
2018-07-11T08:57:27.429Z,28
2018-07-11T08:58:27.480Z,27.8
2018-07-11T08:59:27.516Z,27.6
2018-07-11T09:00:27.594Z,27.4
2018-07-11T09:01:27.687Z,27.2
2018-07-11T09:02:27.734Z,27.1
2018-07-11T09:04:27.836Z,27
2018-07-11T09:05:27.866Z,26.9
2018-07-11T09:08:28.052Z,27
2018-07-11T09:10:28.267Z,27.1
2018-07-11T09:12:28.345Z,27.2
2018-07-11T09:18:28.733Z,27.4
2018-07-11T09:19:28.792Z,27.6
2018-07-11T09:20:28.965Z,28.3
2018-07-11T09:21:28.908Z,28.1
2018-07-11T09:24:29.188Z,28.5
2018-07-11T09:25:29.274Z,29.5
2018-07-11T09:26:29.217Z,30.3
2018-07-11T09:27:29.272Z,32.5
2018-07-11T09:28:29.335Z,34.7
2018-07-11T09:29:29.360Z,36.4
2018-07-11T09:30:29.725Z,37.1
2018-07-11T09:31:29.519Z,38.9
2018-07-11T09:32:29.547Z,40.4
2018-07-11T09:33:29.620Z,41.7
2018-07-11T09:34:31.488Z,42.6
2018-07-11T09:35:29.848Z,43.6
2018-07-11T09:36:29.852Z,44.2
2018-07-11T09:37:29.919Z,44.7
2018-07-11T09:38:29.926Z,43.5
2018-07-11T09:39:29.976Z,42.6
2018-07-11T09:40:30.038Z,41.6
2018-07-11T09:41:30.098Z,42.1
2018-07-11T09:42:30.210Z,42.7
2018-07-11T09:43:30.219Z,43.7
2018-07-11T09:44:30.357Z,44.6
2018-07-11T09:45:30.438Z,45.4
2018-07-11T09:46:30.455Z,44.6
2018-07-11T09:47:30.496Z,43.7
2018-07-11T09:48:30.544Z,44.1
2018-07-11T09:49:30.636Z,45.1
2018-07-11T09:50:30.710Z,45.8
2018-07-11T09:51:30.801Z,46.1
2018-07-11T09:52:30.796Z,46.4
2018-07-11T09:55:30.967Z,45.1
2018-07-11T09:57:31.095Z,45.5
2018-07-11T09:58:31.146Z,46.5
2018-07-11T09:59:31.207Z,47.2
2018-07-11T10:00:31.293Z,47.9
2018-07-11T10:01:31.332Z,48
2018-07-11T10:02:31.444Z,47
2018-07-11T10:03:31.506Z,46.5
2018-07-11T10:04:31.578Z,47.5
2018-07-11T10:05:31.624Z,47.4
2018-07-11T10:06:31.730Z,45.9
2018-07-11T10:07:31.774Z,44.6
2018-07-11T10:08:31.834Z,45
2018-07-11T10:09:31.894Z,45.8
2018-07-11T10:10:31.930Z,44.1
2018-07-11T10:11:32.003Z,42.7
2018-07-11T10:12:32.086Z,41.5
2018-07-11T10:13:32.140Z,40.6
2018-07-11T10:14:32.196Z,39.7
2018-07-11T10:15:32.265Z,39
2018-07-11T10:16:32.310Z,38.6
2018-07-11T10:17:32.364Z,38.1
2018-07-11T10:18:32.423Z,37.9
2018-07-11T10:19:32.521Z,37.6
2018-07-11T10:20:32.551Z,37.2
2018-07-11T10:21:32.675Z,37
2018-07-11T10:22:32.688Z,37.1
2018-07-11T10:23:32.690Z,37.4
2018-07-11T10:24:32.753Z,38.1
2018-07-11T10:25:32.816Z,37.5
2018-07-11T10:26:32.883Z,36.9
2018-07-11T10:27:32.938Z,36.2
2018-07-11T10:28:33.018Z,35.9
2018-07-11T10:29:33.104Z,35.7
2018-07-11T10:30:33.162Z,35.6
2018-07-11T10:31:33.185Z,35.4
2018-07-11T10:32:33.248Z,35.1
2018-07-11T10:33:33.390Z,35
2018-07-11T10:34:33.417Z,34.7
2018-07-11T10:35:33.730Z,34.6
2018-07-11T10:36:33.519Z,35.1
2018-07-11T10:37:33.589Z,35.5
2018-07-11T10:39:33.720Z,35.4
2018-07-11T10:40:33.748Z,35.6
2018-07-11T10:41:33.811Z,37
2018-07-11T10:42:33.866Z,38.1
2018-07-11T10:43:33.924Z,40.1
2018-07-11T10:44:33.985Z,40.5
2018-07-11T10:45:34.064Z,39.4
2018-07-11T10:46:34.112Z,38.5
2018-07-11T10:47:34.176Z,37.9
2018-07-11T10:48:34.304Z,37.2
2018-07-11T10:49:34.297Z,36.9
2018-07-11T10:50:34.421Z,36.4
2018-07-11T10:51:34.453Z,35.7
2018-07-11T10:52:34.543Z,35
2018-07-11T10:53:34.577Z,34.4
2018-07-11T10:54:34.646Z,33.7
2018-07-11T10:55:34.741Z,33.2
2018-07-11T10:56:34.747Z,32.7
2018-07-11T10:57:35.135Z,32.4
2018-07-11T10:58:34.873Z,32
2018-07-11T10:59:34.958Z,32.1
2018-07-11T11:00:37.246Z,32
2018-07-11T11:01:35.134Z,31.8
2018-07-11T11:02:35.222Z,31.6
2018-07-11T11:03:35.225Z,32
2018-07-11T11:04:35.313Z,32.6
2018-07-11T11:05:35.354Z,33.5
2018-07-11T11:06:35.384Z,34
2018-07-11T11:07:35.449Z,34.1
2018-07-11T11:08:35.545Z,33.7
2018-07-11T11:09:35.574Z,33.4
2018-07-11T11:10:35.602Z,32.9
2018-07-11T11:11:35.682Z,32.5
2018-07-11T11:12:35.718Z,32.1
2018-07-11T11:13:35.779Z,31.8
2018-07-11T11:14:35.861Z,31.5
2018-07-11T11:19:36.161Z,31.6
2018-07-11T11:20:36.227Z,31.9
2018-07-11T11:21:36.321Z,32.1
2018-07-11T11:22:36.339Z,33.2
2018-07-11T11:23:36.466Z,35.4
2018-07-11T11:24:36.504Z,37.6
2018-07-11T11:25:36.622Z,39.2
2018-07-11T11:26:36.658Z,40.6
2018-07-11T11:27:36.641Z,41.4
2018-07-11T11:28:38.090Z,40
2018-07-11T11:29:36.772Z,40.1
2018-07-11T11:30:36.840Z,39.2
2018-07-11T11:31:36.893Z,38.5
2018-07-11T11:32:36.943Z,38.2
2018-07-11T11:33:37.043Z,38.9
2018-07-11T11:34:37.123Z,39.6
2018-07-11T11:35:37.148Z,40.6
2018-07-11T11:36:37.187Z,40.8
2018-07-11T11:37:37.261Z,39.4
2018-07-11T11:38:37.452Z,37.9
2018-07-11T11:39:37.425Z,36.9
2018-07-11T11:40:37.480Z,36.4
2018-07-11T11:41:37.540Z,36
2018-07-11T11:42:37.802Z,35.4
2018-07-11T11:43:37.922Z,35.6
2018-07-11T11:44:37.746Z,35
2018-07-11T11:45:37.776Z,37
2018-07-11T11:46:37.865Z,39.2
2018-07-11T11:47:37.935Z,39.1
2018-07-11T11:48:37.994Z,39
2018-07-11T11:49:38.044Z,38
2018-07-11T11:50:38.126Z,38.4
2018-07-11T11:51:38.181Z,40.6
2018-07-11T11:52:38.244Z,41
2018-07-11T11:53:38.307Z,39
2018-07-11T11:54:38.387Z,37.6
2018-07-11T11:55:38.391Z,36.5
2018-07-11T11:56:38.494Z,35.5
2018-07-11T11:58:38.682Z,36.4
2018-07-11T11:59:38.611Z,36.9
2018-07-11T12:01:38.835Z,36.4
2018-07-11T12:02:38.803Z,36.1
2018-07-11T12:03:38.864Z,36
2018-07-11T12:04:38.951Z,38.9
2018-07-11T12:05:38.979Z,41.1
2018-07-11T12:06:39.044Z,42.7
2018-07-11T12:07:39.109Z,44.1
2018-07-11T12:08:39.173Z,45.2
2018-07-11T12:09:39.230Z,46.1
2018-07-11T12:10:39.308Z,47
2018-07-11T12:11:39.367Z,47.6
2018-07-11T12:12:39.457Z,48.4
2018-07-11T12:13:39.524Z,45.8
2018-07-11T12:14:39.588Z,43.6
2018-07-11T12:15:39.617Z,42
2018-07-11T12:16:39.671Z,40.6
2018-07-11T12:17:39.740Z,39.6
2018-07-11T12:18:39.882Z,38.6
2018-07-11T12:19:40.355Z,37.9
2018-07-11T12:20:40.418Z,37.5
2018-07-11T12:21:40.493Z,37
2018-07-11T12:22:40.584Z,39.2
2018-07-11T12:23:40.639Z,41.4
2018-07-11T12:24:40.792Z,43
2018-07-11T12:25:40.759Z,44.5
2018-07-11T12:26:40.813Z,42.9
2018-07-11T12:27:40.923Z,41.1
2018-07-11T12:28:40.926Z,40
2018-07-11T12:29:40.973Z,41
2018-07-11T12:30:41.091Z,41.7
2018-07-11T12:31:41.165Z,43.7
2018-07-11T12:32:41.198Z,43.9
2018-07-11T12:33:41.272Z,42.1
2018-07-11T12:34:41.329Z,41.6
2018-07-11T12:35:41.712Z,43.4
2018-07-11T12:36:41.764Z,42.6
2018-07-11T12:37:41.819Z,41.1
2018-07-11T12:38:41.882Z,40.1
2018-07-11T12:39:41.959Z,40.6
2018-07-11T12:40:42.024Z,43
2018-07-11T12:41:42.081Z,44.6
2018-07-11T12:42:42.136Z,46.1
2018-07-11T12:43:42.236Z,47.2
2018-07-11T12:44:42.311Z,48.3
2018-07-11T12:45:42.331Z,49
2018-07-11T12:46:42.432Z,48.9
2018-07-11T12:47:42.501Z,49.1
2018-07-11T12:48:42.513Z,48.1
2018-07-11T12:49:42.563Z,48.6
2018-07-11T12:50:42.638Z,49
2018-07-11T12:51:42.693Z,48.9
2018-07-11T12:52:42.772Z,47.4
2018-07-11T12:53:42.819Z,47.5
2018-07-11T12:54:42.866Z,48.1
2018-07-11T12:55:42.935Z,48.6
2018-07-11T12:56:42.996Z,49
2018-07-11T12:57:43.068Z,49.2
2018-07-11T12:58:43.136Z,49.4
2018-07-11T12:59:43.221Z,47.4
2018-07-11T13:00:43.301Z,44.9
2018-07-11T13:01:43.365Z,43.1
2018-07-11T13:02:43.399Z,41.7
2018-07-11T13:03:43.473Z,40.5
2018-07-11T13:04:43.545Z,39.2
2018-07-11T13:05:43.625Z,38.1
2018-07-11T13:06:43.680Z,39
2018-07-11T13:07:43.737Z,40.8
2018-07-11T13:08:43.790Z,42
2018-07-11T13:09:43.851Z,43.1
2018-07-11T13:10:43.914Z,44
2018-07-11T13:11:43.984Z,45
2018-07-11T13:12:44.032Z,45.8
2018-07-11T13:13:44.107Z,45.1
2018-07-11T13:14:44.164Z,45.9
2018-07-11T13:15:44.171Z,43.4
2018-07-11T13:16:44.333Z,41.4
2018-07-11T13:17:44.354Z,39.7
2018-07-11T13:18:44.386Z,38.2
2018-07-11T13:19:44.471Z,37.1
2018-07-11T13:20:44.543Z,36.1
2018-07-11T13:21:44.980Z,35.2
2018-07-11T13:22:45.008Z,35.1
2018-07-11T13:23:45.071Z,36.2
2018-07-11T13:24:45.189Z,36
2018-07-11T13:25:45.240Z,36.6
2018-07-11T13:26:45.298Z,38.9
2018-07-11T13:27:45.372Z,40.6
2018-07-11T13:28:45.432Z,39.2
2018-07-11T13:29:45.499Z,37.7
2018-07-11T13:30:45.513Z,36.6
2018-07-11T13:31:45.594Z,35.7
2018-07-11T13:32:45.630Z,34.7
2018-07-11T13:33:45.688Z,34.2
2018-07-11T13:34:46.184Z,33.9
2018-07-11T13:35:45.838Z,35.2
2018-07-11T13:36:45.885Z,36.4
2018-07-11T13:37:45.949Z,36.7
2018-07-11T13:38:46.026Z,35.7
2018-07-11T13:39:46.053Z,34.9
2018-07-11T13:40:46.131Z,37
2018-07-11T13:41:46.233Z,38.9
2018-07-11T13:42:46.279Z,40.5
2018-07-11T13:43:46.332Z,41.7
2018-07-11T13:44:46.367Z,42.7
2018-07-11T13:45:46.457Z,43.4
2018-07-11T13:46:47.104Z,44
2018-07-11T13:47:46.587Z,44.4
2018-07-11T13:48:46.670Z,44.7
2018-07-11T13:49:46.736Z,45.2
2018-07-11T13:50:46.797Z,45.5
2018-07-11T13:51:46.860Z,45.9
2018-07-11T13:52:46.899Z,46.2
2018-07-11T13:53:46.996Z,46.5
2018-07-11T13:54:47.014Z,46.7
2018-07-11T13:55:47.106Z,46.9
2018-07-11T13:56:47.162Z,47
2018-07-11T13:58:47.256Z,47.1
2018-07-11T13:59:47.289Z,47.2
2018-07-11T14:01:47.475Z,47.4
2018-07-11T14:05:47.701Z,47.5
2018-07-11T14:06:47.728Z,47.7
2018-07-11T14:07:47.787Z,48
2018-07-11T14:08:47.855Z,48.4
2018-07-11T14:09:47.931Z,48.6
2018-07-11T14:10:47.975Z,48.7
2018-07-11T14:11:48.042Z,49
2018-07-11T14:12:48.111Z,49.2
2018-07-11T14:13:48.169Z,49.5
2018-07-11T14:14:48.219Z,49.7
2018-07-11T14:15:48.284Z,49.9
2018-07-11T14:17:48.434Z,49.7
2018-07-11T14:18:48.477Z,49.9
2018-07-11T14:20:48.601Z,50.1
2018-07-11T14:21:48.687Z,47.6
2018-07-11T14:22:48.726Z,45.4
2018-07-11T14:23:48.778Z,43.4
2018-07-11T14:24:48.858Z,41.9
2018-07-11T14:25:48.899Z,40.5
2018-07-11T14:26:48.956Z,40
2018-07-11T14:27:49.142Z,40.5
2018-07-11T14:28:49.086Z,39.7
2018-07-11T14:29:49.179Z,39
2018-07-11T14:30:49.210Z,38.5
2018-07-11T14:31:49.320Z,38.1
2018-07-11T14:32:49.342Z,37.4
2018-07-11T14:33:49.424Z,37.1
2018-07-11T14:34:49.486Z,37.5
2018-07-11T14:35:49.764Z,37.1
2018-07-11T14:36:49.860Z,37.9
2018-07-11T14:37:49.896Z,38.5
2018-07-11T14:38:49.960Z,38.1
2018-07-11T14:39:50.167Z,37.2
2018-07-11T14:40:50.096Z,36.7
2018-07-11T14:41:50.156Z,37.4
2018-07-11T14:42:50.203Z,37.6
2018-07-11T14:43:50.242Z,39.4
2018-07-11T14:44:50.397Z,40
2018-07-11T14:46:50.480Z,40.2
2018-07-11T14:48:50.548Z,40.9
2018-07-11T14:49:50.633Z,41.1
2018-07-11T14:50:50.673Z,40.2
2018-07-11T14:51:50.776Z,39.2
2018-07-11T14:52:50.787Z,38.5
2018-07-11T14:53:50.855Z,39.2
2018-07-11T14:54:50.917Z,39.5
2018-07-11T14:55:50.980Z,39
2018-07-11T14:56:51.052Z,38.7
2018-07-11T14:57:51.152Z,38.2
2018-07-11T14:58:51.166Z,38
2018-07-11T14:59:51.219Z,37.5
2018-07-11T15:00:51.326Z,37.1
2018-07-11T15:01:51.419Z,37
2018-07-11T15:02:51.412Z,36.4
2018-07-11T15:03:51.533Z,35.9
2018-07-11T15:04:51.541Z,35.5
2018-07-11T15:05:51.600Z,35.1
2018-07-11T15:06:51.682Z,34.9
2018-07-11T15:07:52.186Z,34.6
2018-07-11T15:08:51.997Z,34.2
2018-07-11T15:09:51.834Z,34
2018-07-11T15:10:51.908Z,33.7
2018-07-11T15:11:52.015Z,33.5
2018-07-11T15:12:52.080Z,34.2
2018-07-11T15:13:52.084Z,34.4
2018-07-11T15:14:52.156Z,36.5
2018-07-11T15:15:52.263Z,38.5
2018-07-11T15:16:52.291Z,39.9
2018-07-11T15:17:52.391Z,41
2018-07-11T15:18:52.393Z,41.1
2018-07-11T15:19:52.509Z,40.9
2018-07-11T15:20:52.594Z,40
2018-07-11T15:21:52.872Z,39.4
2018-07-11T15:22:52.805Z,38.6
2018-07-11T15:23:52.916Z,37.6
2018-07-11T15:24:52.977Z,36.9
2018-07-11T15:26:53.100Z,36.1
2018-07-11T15:27:53.124Z,35.2
2018-07-11T15:28:53.205Z,34.7
2018-07-11T15:29:53.835Z,36
2018-07-11T15:30:53.310Z,37.4
2018-07-11T15:31:53.415Z,38.4
2018-07-11T15:32:53.473Z,39.1
2018-07-11T15:33:53.549Z,39.7
2018-07-11T15:34:53.613Z,40.4
2018-07-11T15:35:53.612Z,40.9
2018-07-11T15:36:53.675Z,41.4
2018-07-11T15:37:54.406Z,41.5
2018-07-11T15:38:53.816Z,41.9
2018-07-11T15:39:53.851Z,42.2
2018-07-11T15:40:53.924Z,42.7
2018-07-11T15:41:53.970Z,43
2018-07-11T15:42:54.026Z,43.4
2018-07-11T15:43:54.106Z,43.6
2018-07-11T15:44:54.169Z,43.7
2018-07-11T15:46:54.331Z,44.1
2018-07-11T15:47:54.421Z,44.5
2018-07-11T15:48:54.439Z,44.9
2018-07-11T15:49:54.472Z,45.4
2018-07-11T15:50:54.539Z,45.6
2018-07-11T15:51:54.614Z,46
2018-07-11T15:52:54.660Z,45.6
2018-07-11T15:53:54.713Z,44.5
2018-07-11T15:54:54.769Z,43
2018-07-11T15:55:54.846Z,41.5
2018-07-11T15:56:54.892Z,40.1
2018-07-11T15:57:54.952Z,38.9
2018-07-11T15:58:55.056Z,37.7
2018-07-11T15:59:55.112Z,36.6
2018-07-11T16:00:55.201Z,35.6
2018-07-11T16:01:55.201Z,34.7
2018-07-11T16:02:55.322Z,33.7
2018-07-11T16:03:55.372Z,33
2018-07-11T16:04:55.699Z,32.2
2018-07-11T16:05:55.871Z,31.8
2018-07-11T16:07:55.574Z,31.2
2018-07-11T16:08:55.707Z,31.1
2018-07-11T16:09:55.692Z,31
2018-07-11T16:11:55.832Z,30.9
2018-07-11T16:12:55.890Z,30.6
2018-07-11T16:13:55.952Z,30.4
2018-07-11T16:14:56.016Z,30.3
2018-07-11T16:15:56.105Z,30.4
2018-07-11T16:18:56.315Z,31
2018-07-11T16:19:56.380Z,32.2
2018-07-11T16:20:56.440Z,33.2
2018-07-11T16:22:56.527Z,32.6
2018-07-11T16:23:56.593Z,32.1
2018-07-11T16:29:57.331Z,29.5
2018-07-11T16:30:57.370Z,28.9
2018-07-11T16:31:57.418Z,28.4
2018-07-11T16:32:57.527Z,27.9
2018-07-11T16:33:57.533Z,27.4
2018-07-11T16:34:57.655Z,27
2018-07-11T16:35:57.692Z,26.6
2018-07-11T16:36:57.740Z,26.2
2018-07-11T16:37:57.782Z,26
2018-07-11T16:38:57.839Z,25.6
2018-07-11T16:39:57.981Z,25.4
2018-07-11T16:40:57.959Z,25.3
2018-07-11T16:41:58.027Z,25
2018-07-11T16:42:58.110Z,24.9
2018-07-11T16:43:58.479Z,24.7
2018-07-11T16:44:58.537Z,24.6
2018-07-11T16:45:58.602Z,24.5
2018-07-11T16:46:58.647Z,24.4
2018-07-11T16:48:58.730Z,24.3
2018-07-11T16:50:58.888Z,24.1
2018-07-11T16:51:58.944Z,24
2018-07-11T16:52:59.014Z,23.9
2018-07-11T16:54:59.225Z,23.7
2018-07-11T16:55:59.227Z,23.6
2018-07-11T16:57:59.385Z,23.5
2018-07-11T16:59:59.563Z,23.4
2018-07-11T17:01:59.602Z,23.3
2018-07-11T17:04:59.830Z,23.1
2018-07-11T17:05:59.822Z,23.3
2018-07-11T17:09:00.153Z,23.4
2018-07-11T17:11:00.197Z,23.5
2018-07-11T17:15:02.058Z,23.6
2018-07-11T17:18:01.533Z,23.5
2018-07-11T17:20:01.539Z,23.4
2018-07-11T17:21:01.092Z,23.3
2018-07-11T17:22:01.338Z,23.1
2018-07-11T17:23:01.139Z,23
2018-07-11T17:24:01.217Z,22.9
2018-07-11T17:25:01.524Z,22.8
2018-07-11T17:26:01.364Z,22.5
2018-07-11T17:27:01.510Z,22.4
2018-07-11T17:28:01.620Z,22.2
2018-07-11T17:29:01.651Z,22.1
2018-07-11T17:30:01.900Z,22
2018-07-11T17:31:01.802Z,21.8
2018-07-11T17:33:01.929Z,21.6
2018-07-11T17:34:01.984Z,21.5
2018-07-11T17:35:02.048Z,21.4
2018-07-11T17:37:02.128Z,21.2
2018-07-11T17:39:02.245Z,21.1
2018-07-11T17:40:02.321Z,21
2018-07-11T17:42:02.440Z,20.9
2018-07-11T17:43:02.537Z,20.8
2018-07-11T17:44:02.605Z,20.5
2018-07-11T17:45:02.623Z,20.4
2018-07-11T17:46:02.700Z,20.3
2018-07-11T17:47:02.800Z,20.1
2018-07-11T17:48:02.821Z,20
2018-07-11T17:49:02.918Z,19.9
2018-07-11T17:50:03.265Z,19.8
2018-07-11T17:52:03.927Z,19.6
2018-07-11T17:53:03.999Z,19.5
2018-07-11T17:57:04.295Z,19.4
2018-07-11T17:58:04.390Z,19.5
2018-07-11T17:59:04.449Z,19.4
2018-07-11T18:00:04.540Z,19.5
2018-07-11T18:01:04.590Z,19.4
2018-07-11T18:03:05.014Z,19.5
2018-07-11T18:04:05.022Z,19.4
2018-07-11T18:08:05.701Z,19.3
2018-07-11T18:11:05.887Z,19.1
2018-07-11T18:12:05.909Z,19
2018-07-11T18:14:06.071Z,18.9
2018-07-11T18:15:06.185Z,18.8
2018-07-11T18:17:06.281Z,18.6
2018-07-11T18:18:06.797Z,18.5
2018-07-11T18:21:07.057Z,18.4
2018-07-11T18:23:07.106Z,18.3
2018-07-11T18:25:07.246Z,18.1
2018-07-11T18:27:07.411Z,18
2018-07-11T18:54:10.462Z,17.9
2018-07-11T18:57:10.650Z,17.8
2018-07-11T18:58:10.734Z,17.6
2018-07-11T19:00:10.824Z,17.5
2018-07-11T19:01:10.884Z,17.4
2018-07-11T19:02:10.922Z,17.2
2018-07-11T19:04:11.104Z,17.1
2018-07-11T19:06:11.387Z,17
2018-07-11T19:08:11.358Z,16.9
2018-07-11T19:10:11.429Z,16.8
2018-07-11T19:14:11.672Z,16.6
2018-07-11T19:17:11.865Z,16.5
2018-07-11T19:22:12.190Z,16.4
2018-07-11T19:26:12.416Z,16.3
2018-07-11T19:28:12.537Z,16.1
2018-07-11T19:33:12.817Z,16
2018-07-11T19:46:13.680Z,15.9
2018-07-11T19:51:14.008Z,15.8
2018-07-11T19:56:14.272Z,15.6
2018-07-11T20:00:14.552Z,15.5
2018-07-11T20:04:14.763Z,15.4
2018-07-11T20:08:17.044Z,15.3
2018-07-11T20:13:17.478Z,15.1
2018-07-11T20:19:17.849Z,15
2018-07-11T20:25:18.787Z,14.9
2018-07-11T20:28:18.469Z,14.7
2018-07-11T20:31:19.112Z,14.6
2018-07-11T20:33:18.731Z,14.5
2018-07-11T20:35:18.847Z,14.4
2018-07-11T20:39:19.084Z,14.3
2018-07-11T20:41:19.276Z,14.1
2018-07-11T20:44:19.432Z,14
2018-07-11T20:49:20.233Z,13.9
2018-07-11T20:50:20.300Z,14
2018-07-11T20:51:20.315Z,13.9
2018-07-11T21:03:21.109Z,13.8
2018-07-11T21:04:21.157Z,13.9
2018-07-11T21:09:21.480Z,13.8
2018-07-11T21:17:21.907Z,13.6
2018-07-11T21:21:22.157Z,13.5
2018-07-11T21:24:22.348Z,13.4
2018-07-11T21:27:22.606Z,13.3
2018-07-11T21:30:22.747Z,13.1
2018-07-11T21:32:22.872Z,13
2018-07-11T21:34:23.017Z,12.9
2018-07-11T21:37:23.216Z,12.8
2018-07-11T21:40:23.401Z,12.6
2018-07-11T21:43:23.524Z,12.5
2018-07-11T21:47:23.772Z,12.4
2018-07-11T21:52:24.113Z,12.2
2018-07-11T21:53:24.182Z,12.4
2018-07-11T21:54:24.202Z,12.2
2018-07-11T22:02:24.749Z,12.1
2018-07-11T22:09:25.132Z,12
2018-07-11T22:10:25.312Z,12.1
2018-07-11T22:11:25.340Z,12
2018-07-11T22:46:27.647Z,11.9
2018-07-11T23:03:28.694Z,12
2018-07-11T23:04:28.763Z,11.9
2018-07-11T23:06:28.909Z,12
2018-07-11T23:21:29.770Z,11.9
2018-07-11T23:34:30.583Z,11.8
2018-07-11T23:35:30.670Z,11.9
2018-07-11T23:36:30.681Z,11.8
2018-07-11T23:49:31.516Z,11.6
